sensor_id;sensor_type;location;lat;lon;timestamp;P1;durP1;ratioP1;P2;durP2;ratioP2
19842;SDS011;10082;51.038;6.992;2022-10-03T00:01:07;9.65;;;6.93;;
19842;SDS011;10082;51.038;6.992;2022-10-03T00:03:43;9.30;;;6.50;;
19842;SDS011;10082;51.038;6.992;2022-10-03T00:06:24;12.43;;;7.30;;
19842;SDS011;10082;51.038;6.992;2022-10-03T00:09:25;13.90;;;7.72;;
19842;SDS011;10082;51.038;6.992;2022-10-03T00:12:08;13.07;;;7.80;;
19842;SDS011;10082;51.038;6.992;2022-10-03T00:14:47;10.93;;;6.95;;
19842;SDS011;10082;51.038;6.992;2022-10-03T00:17:24;10.63;;;7.20;;
19842;SDS011;10082;51.038;6.992;2022-10-03T00:19:58;15.00;;;8.20;;
19842;SDS011;10082;51.038;6.992;2022-10-03T00:22:34;14.07;;;7.50;;
19842;SDS011;10082;51.038;6.992;2022-10-03T00:25:19;11.95;;;6.20;;
19842;SDS011;10082;51.038;6.992;2022-10-03T00:28:01;10.95;;;6.68;;
19842;SDS011;10082;51.038;6.992;2022-10-03T00:30:48;9.52;;;6.55;;
19842;SDS011;10082;51.038;6.992;2022-10-03T00:33:29;15.20;;;7.50;;
19842;SDS011;10082;51.038;6.992;2022-10-03T00:36:05;10.40;;;6.93;;
19842;SDS011;10082;51.038;6.992;2022-10-03T00:38:49;12.23;;;8.20;;
19842;SDS011;10082;51.038;6.992;2022-10-03T00:41:34;13.60;;;7.97;;
19842;SDS011;10082;51.038;6.992;2022-10-03T00:44:30;9.83;;;8.00;;
19842;SDS011;10082;51.038;6.992;2022-10-03T00:47:15;12.45;;;8.25;;
19842;SDS011;10082;51.038;6.992;2022-10-03T00:50:09;14.73;;;9.60;;
19842;SDS011;10082;51.038;6.992;2022-10-03T00:52:55;15.27;;;8.73;;
19842;SDS011;10082;51.038;6.992;2022-10-03T00:55:31;11.75;;;7.82;;
19842;SDS011;10082;51.038;6.992;2022-10-03T00:58:18;11.03;;;7.80;;
19842;SDS011;10082;51.038;6.992;2022-10-03T01:00:57;10.13;;;7.88;;
19842;SDS011;10082;51.038;6.992;2022-10-03T01:03:48;13.53;;;8.00;;
19842;SDS011;10082;51.038;6.992;2022-10-03T01:06:29;12.37;;;8.13;;
19842;SDS011;10082;51.038;6.992;2022-10-03T01:09:05;9.90;;;8.05;;
19842;SDS011;10082;51.038;6.992;2022-10-03T01:11:46;11.77;;;8.70;;
19842;SDS011;10082;51.038;6.992;2022-10-03T01:14:29;10.50;;;7.97;;
19842;SDS011;10082;51.038;6.992;2022-10-03T01:17:11;9.60;;;8.43;;
19842;SDS011;10082;51.038;6.992;2022-10-03T01:19:51;11.32;;;8.23;;
19842;SDS011;10082;51.038;6.992;2022-10-03T01:22:40;11.80;;;8.43;;
19842;SDS011;10082;51.038;6.992;2022-10-03T01:25:29;10.13;;;8.30;;
19842;SDS011;10082;51.038;6.992;2022-10-03T01:28:13;11.27;;;8.60;;
19842;SDS011;10082;51.038;6.992;2022-10-03T01:31:08;10.77;;;8.33;;
19842;SDS011;10082;51.038;6.992;2022-10-03T01:33:41;10.47;;;8.43;;
19842;SDS011;10082;51.038;6.992;2022-10-03T01:36:13;10.40;;;8.53;;
19842;SDS011;10082;51.038;6.992;2022-10-03T01:38:47;9.33;;;8.27;;
19842;SDS011;10082;51.038;6.992;2022-10-03T01:41:23;9.50;;;8.60;;
19842;SDS011;10082;51.038;6.992;2022-10-03T01:44:00;10.53;;;8.63;;
19842;SDS011;10082;51.038;6.992;2022-10-03T01:46:37;9.43;;;8.13;;
19842;SDS011;10082;51.038;6.992;2022-10-03T01:49:09;9.13;;;7.73;;
19842;SDS011;10082;51.038;6.992;2022-10-03T01:51:47;9.10;;;8.30;;
19842;SDS011;10082;51.038;6.992;2022-10-03T01:54:21;11.73;;;8.63;;
19842;SDS011;10082;51.038;6.992;2022-10-03T01:56:56;9.80;;;7.90;;
19842;SDS011;10082;51.038;6.992;2022-10-03T01:59:31;10.77;;;8.13;;
19842;SDS011;10082;51.038;6.992;2022-10-03T02:02:05;9.97;;;7.57;;
19842;SDS011;10082;51.038;6.992;2022-10-03T02:04:38;10.57;;;8.63;;
19842;SDS011;10082;51.038;6.992;2022-10-03T02:07:11;12.10;;;8.10;;
19842;SDS011;10082;51.038;6.992;2022-10-03T02:09:49;14.17;;;8.37;;
19842;SDS011;10082;51.038;6.992;2022-10-03T02:12:26;9.33;;;8.40;;
19842;SDS011;10082;51.038;6.992;2022-10-03T02:15:01;9.97;;;7.67;;
19842;SDS011;10082;51.038;6.992;2022-10-03T02:17:41;9.30;;;7.77;;
19842;SDS011;10082;51.038;6.992;2022-10-03T02:20:17;8.93;;;7.70;;
19842;SDS011;10082;51.038;6.992;2022-10-03T02:22:52;12.40;;;8.23;;
19842;SDS011;10082;51.038;6.992;2022-10-03T02:25:23;9.50;;;7.97;;
19842;SDS011;10082;51.038;6.992;2022-10-03T02:37:26;10.57;;;7.50;;
19842;SDS011;10082;51.038;6.992;2022-10-03T02:40:08;11.47;;;7.70;;
19842;SDS011;10082;51.038;6.992;2022-10-03T02:43:01;10.53;;;7.73;;
19842;SDS011;10082;51.038;6.992;2022-10-03T02:48:49;10.73;;;7.83;;
19842;SDS011;10082;51.038;6.992;2022-10-03T02:57:25;12.00;;;7.87;;
19842;SDS011;10082;51.038;6.992;2022-10-03T03:00:11;10.50;;;7.57;;
19842;SDS011;10082;51.038;6.992;2022-10-03T03:03:00;9.50;;;7.17;;
19842;SDS011;10082;51.038;6.992;2022-10-03T03:05:52;9.40;;;7.40;;
19842;SDS011;10082;51.038;6.992;2022-10-03T03:11:47;9.03;;;7.10;;
19842;SDS011;10082;51.038;6.992;2022-10-03T03:14:53;9.37;;;7.77;;
19842;SDS011;10082;51.038;6.992;2022-10-03T03:17:34;7.73;;;7.00;;
19842;SDS011;10082;51.038;6.992;2022-10-03T03:20:09;8.00;;;7.10;;
19842;SDS011;10082;51.038;6.992;2022-10-03T03:23:02;10.00;;;6.93;;
19842;SDS011;10082;51.038;6.992;2022-10-03T03:25:49;7.43;;;6.73;;
19842;SDS011;10082;51.038;6.992;2022-10-03T03:28:32;10.10;;;7.40;;
19842;SDS011;10082;51.038;6.992;2022-10-03T03:31:09;9.90;;;7.20;;
19842;SDS011;10082;51.038;6.992;2022-10-03T03:33:46;11.20;;;7.33;;
19842;SDS011;10082;51.038;6.992;2022-10-03T03:36:22;8.17;;;6.73;;
19842;SDS011;10082;51.038;6.992;2022-10-03T03:39:04;6.90;;;6.20;;
19842;SDS011;10082;51.038;6.992;2022-10-03T03:41:45;9.87;;;6.93;;
19842;SDS011;10082;51.038;6.992;2022-10-03T03:44:29;8.27;;;6.70;;
19842;SDS011;10082;51.038;6.992;2022-10-03T03:47:17;6.40;;;5.80;;
19842;SDS011;10082;51.038;6.992;2022-10-03T03:50:01;8.90;;;6.97;;
19842;SDS011;10082;51.038;6.992;2022-10-03T03:52:47;7.60;;;6.80;;
19842;SDS011;10082;51.038;6.992;2022-10-03T03:55:38;10.57;;;6.77;;
19842;SDS011;10082;51.038;6.992;2022-10-03T03:58:20;8.17;;;6.90;;
19842;SDS011;10082;51.038;6.992;2022-10-03T04:03:52;10.40;;;6.50;;
19842;SDS011;10082;51.038;6.992;2022-10-03T04:06:33;8.83;;;7.00;;
19842;SDS011;10082;51.038;6.992;2022-10-03T04:09:20;12.30;;;7.17;;
19842;SDS011;10082;51.038;6.992;2022-10-03T04:12:01;9.38;;;7.03;;
19842;SDS011;10082;51.038;6.992;2022-10-03T04:14:39;10.20;;;7.07;;
19842;SDS011;10082;51.038;6.992;2022-10-03T04:17:27;8.27;;;7.13;;
19842;SDS011;10082;51.038;6.992;2022-10-03T04:20:24;10.65;;;7.60;;
19842;SDS011;10082;51.038;6.992;2022-10-03T04:23:11;8.97;;;6.40;;
19842;SDS011;10082;51.038;6.992;2022-10-03T04:25:57;8.90;;;7.27;;
19842;SDS011;10082;51.038;6.992;2022-10-03T04:28:49;10.00;;;6.72;;
19842;SDS011;10082;51.038;6.992;2022-10-03T04:31:32;7.32;;;6.10;;
19842;SDS011;10082;51.038;6.992;2022-10-03T04:34:10;7.07;;;6.30;;
19842;SDS011;10082;51.038;6.992;2022-10-03T04:36:58;8.17;;;6.40;;
19842;SDS011;10082;51.038;6.992;2022-10-03T04:39:34;6.13;;;5.53;;
19842;SDS011;10082;51.038;6.992;2022-10-03T04:42:12;8.63;;;5.80;;
19842;SDS011;10082;51.038;6.992;2022-10-03T04:45:02;8.27;;;6.20;;
19842;SDS011;10082;51.038;6.992;2022-10-03T04:47:41;9.17;;;7.00;;
19842;SDS011;10082;51.038;6.992;2022-10-03T04:50:18;7.33;;;6.00;;
19842;SDS011;10082;51.038;6.992;2022-10-03T04:52:55;9.73;;;6.27;;
19842;SDS011;10082;51.038;6.992;2022-10-03T04:55:32;8.50;;;6.67;;
19842;SDS011;10082;51.038;6.992;2022-10-03T04:58:13;8.80;;;6.07;;
19842;SDS011;10082;51.038;6.992;2022-10-03T05:00:49;9.30;;;6.07;;
19842;SDS011;10082;51.038;6.992;2022-10-03T05:03:27;10.73;;;6.73;;
19842;SDS011;10082;51.038;6.992;2022-10-03T05:06:06;11.10;;;7.10;;
19842;SDS011;10082;51.038;6.992;2022-10-03T05:08:48;8.93;;;6.87;;
19842;SDS011;10082;51.038;6.992;2022-10-03T05:11:23;8.70;;;6.33;;
19842;SDS011;10082;51.038;6.992;2022-10-03T05:14:07;8.93;;;6.53;;
19842;SDS011;10082;51.038;6.992;2022-10-03T05:16:41;8.07;;;6.53;;
19842;SDS011;10082;51.038;6.992;2022-10-03T05:19:34;9.57;;;7.70;;
19842;SDS011;10082;51.038;6.992;2022-10-03T05:22:15;9.63;;;6.17;;
19842;SDS011;10082;51.038;6.992;2022-10-03T05:24:52;7.97;;;5.97;;
19842;SDS011;10082;51.038;6.992;2022-10-03T05:27:30;8.00;;;6.80;;
19842;SDS011;10082;51.038;6.992;2022-10-03T05:30:06;7.57;;;6.50;;
19842;SDS011;10082;51.038;6.992;2022-10-03T05:32:44;6.97;;;6.13;;
19842;SDS011;10082;51.038;6.992;2022-10-03T05:35:23;12.70;;;7.05;;
19842;SDS011;10082;51.038;6.992;2022-10-03T05:41:10;9.13;;;7.40;;
19842;SDS011;10082;51.038;6.992;2022-10-03T05:43:45;10.20;;;6.97;;
19842;SDS011;10082;51.038;6.992;2022-10-03T05:46:29;9.20;;;6.63;;
19842;SDS011;10082;51.038;6.992;2022-10-03T05:49:21;8.63;;;5.87;;
19842;SDS011;10082;51.038;6.992;2022-10-03T05:52:11;7.53;;;6.77;;
19842;SDS011;10082;51.038;6.992;2022-10-03T06:01:24;9.35;;;6.30;;
19842;SDS011;10082;51.038;6.992;2022-10-03T06:07:19;12.17;;;6.97;;
19842;SDS011;10082;51.038;6.992;2022-10-03T06:10:16;10.68;;;6.30;;
19842;SDS011;10082;51.038;6.992;2022-10-03T06:13:02;9.43;;;6.60;;
19842;SDS011;10082;51.038;6.992;2022-10-03T06:30:36;9.25;;;6.38;;
19842;SDS011;10082;51.038;6.992;2022-10-03T06:36:39;9.65;;;6.25;;
19842;SDS011;10082;51.038;6.992;2022-10-03T06:39:30;7.82;;;6.88;;
19842;SDS011;10082;51.038;6.992;2022-10-03T06:42:33;10.32;;;6.78;;
19842;SDS011;10082;51.038;6.992;2022-10-03T06:48:37;8.75;;;6.18;;
19842;SDS011;10082;51.038;6.992;2022-10-03T06:57:24;9.52;;;6.20;;
19842;SDS011;10082;51.038;6.992;2022-10-03T07:00:10;8.50;;;6.20;;
19842;SDS011;10082;51.038;6.992;2022-10-03T07:02:55;9.13;;;6.40;;
19842;SDS011;10082;51.038;6.992;2022-10-03T07:08:53;9.63;;;5.82;;
19842;SDS011;10082;51.038;6.992;2022-10-03T07:18:05;7.38;;;6.18;;
19842;SDS011;10082;51.038;6.992;2022-10-03T07:20:55;10.68;;;6.75;;
19842;SDS011;10082;51.038;6.992;2022-10-03T07:23:52;10.68;;;6.53;;
19842;SDS011;10082;51.038;6.992;2022-10-03T07:29:46;7.63;;;6.50;;
19842;SDS011;10082;51.038;6.992;2022-10-03T07:32:38;12.35;;;6.82;;
19842;SDS011;10082;51.038;6.992;2022-10-03T07:38:46;10.00;;;7.03;;
19842;SDS011;10082;51.038;6.992;2022-10-03T07:41:27;12.55;;;6.97;;
19842;SDS011;10082;51.038;6.992;2022-10-03T07:44:30;9.55;;;6.65;;
19842;SDS011;10082;51.038;6.992;2022-10-03T07:47:28;13.38;;;7.13;;
19842;SDS011;10082;51.038;6.992;2022-10-03T07:50:29;10.38;;;7.18;;
19842;SDS011;10082;51.038;6.992;2022-10-03T07:53:16;8.80;;;7.25;;
19842;SDS011;10082;51.038;6.992;2022-10-03T07:56:04;8.35;;;7.20;;
19842;SDS011;10082;51.038;6.992;2022-10-03T07:58:50;9.02;;;6.63;;
19842;SDS011;10082;51.038;6.992;2022-10-03T08:01:38;11.68;;;7.07;;
19842;SDS011;10082;51.038;6.992;2022-10-03T08:04:35;10.93;;;6.68;;
19842;SDS011;10082;51.038;6.992;2022-10-03T08:07:30;11.00;;;7.22;;
19842;SDS011;10082;51.038;6.992;2022-10-03T08:10:12;11.90;;;6.78;;
19842;SDS011;10082;51.038;6.992;2022-10-03T08:15:49;7.60;;;5.28;;
19842;SDS011;10082;51.038;6.992;2022-10-03T08:18:35;10.40;;;6.40;;
19842;SDS011;10082;51.038;6.992;2022-10-03T08:21:23;10.15;;;6.70;;
19842;SDS011;10082;51.038;6.992;2022-10-03T08:24:09;11.82;;;6.55;;
19842;SDS011;10082;51.038;6.992;2022-10-03T08:26:53;9.43;;;6.25;;
19842;SDS011;10082;51.038;6.992;2022-10-03T08:29:45;8.98;;;6.30;;
19842;SDS011;10082;51.038;6.992;2022-10-03T08:35:33;12.05;;;6.10;;
19842;SDS011;10082;51.038;6.992;2022-10-03T08:38:22;10.15;;;6.28;;
19842;SDS011;10082;51.038;6.992;2022-10-03T08:44:37;15.73;;;7.07;;
19842;SDS011;10082;51.038;6.992;2022-10-03T08:50:38;13.77;;;6.57;;
19842;SDS011;10082;51.038;6.992;2022-10-03T08:56:23;11.75;;;6.30;;
19842;SDS011;10082;51.038;6.992;2022-10-03T08:59:03;11.38;;;6.38;;
19842;SDS011;10082;51.038;6.992;2022-10-03T09:01:59;9.98;;;5.97;;
19842;SDS011;10082;51.038;6.992;2022-10-03T09:08:05;7.45;;;5.50;;
19842;SDS011;10082;51.038;6.992;2022-10-03T09:11:09;10.02;;;5.97;;
19842;SDS011;10082;51.038;6.992;2022-10-03T09:17:08;11.90;;;6.57;;
19842;SDS011;10082;51.038;6.992;2022-10-03T09:22:58;10.82;;;5.95;;
19842;SDS011;10082;51.038;6.992;2022-10-03T09:25:50;14.05;;;6.75;;
19842;SDS011;10082;51.038;6.992;2022-10-03T09:28:43;10.15;;;6.28;;
19842;SDS011;10082;51.038;6.992;2022-10-03T09:31:44;12.20;;;6.57;;
19842;SDS011;10082;51.038;6.992;2022-10-03T09:34:56;9.50;;;6.53;;
19842;SDS011;10082;51.038;6.992;2022-10-03T09:37:53;9.73;;;5.72;;
19842;SDS011;10082;51.038;6.992;2022-10-03T09:40:57;12.88;;;6.43;;
19842;SDS011;10082;51.038;6.992;2022-10-03T09:53:11;10.68;;;6.15;;
19842;SDS011;10082;51.038;6.992;2022-10-03T09:56:06;11.90;;;5.93;;
19842;SDS011;10082;51.038;6.992;2022-10-03T09:58:57;13.23;;;6.30;;
19842;SDS011;10082;51.038;6.992;2022-10-03T10:01:43;10.43;;;6.20;;
19842;SDS011;10082;51.038;6.992;2022-10-03T10:04:28;11.50;;;6.97;;
19842;SDS011;10082;51.038;6.992;2022-10-03T10:10:23;12.63;;;5.68;;
19842;SDS011;10082;51.038;6.992;2022-10-03T10:13:18;11.82;;;6.30;;
19842;SDS011;10082;51.038;6.992;2022-10-03T10:16:24;9.85;;;5.78;;
19842;SDS011;10082;51.038;6.992;2022-10-03T10:22:03;8.38;;;5.20;;
19842;SDS011;10082;51.038;6.992;2022-10-03T10:24:58;11.43;;;5.75;;
19842;SDS011;10082;51.038;6.992;2022-10-03T10:31:10;7.72;;;4.90;;
19842;SDS011;10082;51.038;6.992;2022-10-03T10:34:04;9.30;;;5.63;;
19842;SDS011;10082;51.038;6.992;2022-10-03T10:40:18;7.75;;;4.40;;
19842;SDS011;10082;51.038;6.992;2022-10-03T10:43:22;11.80;;;4.57;;
19842;SDS011;10082;51.038;6.992;2022-10-03T10:46:17;11.82;;;5.20;;
19842;SDS011;10082;51.038;6.992;2022-10-03T10:58:34;6.50;;;2.80;;
19842;SDS011;10082;51.038;6.992;2022-10-03T11:04:40;7.85;;;3.38;;
19842;SDS011;10082;51.038;6.992;2022-10-03T11:07:51;9.68;;;3.17;;
19842;SDS011;10082;51.038;6.992;2022-10-03T11:10:50;8.07;;;2.95;;
19842;SDS011;10082;51.038;6.992;2022-10-03T11:20:13;8.70;;;2.85;;
19842;SDS011;10082;51.038;6.992;2022-10-03T11:29:40;7.28;;;2.42;;
19842;SDS011;10082;51.038;6.992;2022-10-03T11:32:44;7.00;;;2.47;;
19842;SDS011;10082;51.038;6.992;2022-10-03T11:35:51;8.68;;;2.15;;
19842;SDS011;10082;51.038;6.992;2022-10-03T11:38:46;4.72;;;2.00;;
19842;SDS011;10082;51.038;6.992;2022-10-03T11:41:24;6.63;;;2.50;;
19842;SDS011;10082;51.038;6.992;2022-10-03T11:44:12;3.38;;;1.20;;
19842;SDS011;10082;51.038;6.992;2022-10-03T11:46:58;2.80;;;1.40;;
19842;SDS011;10082;51.038;6.992;2022-10-03T11:52:32;4.55;;;1.65;;
19842;SDS011;10082;51.038;6.992;2022-10-03T11:55:14;2.70;;;1.40;;
19842;SDS011;10082;51.038;6.992;2022-10-03T11:57:52;4.63;;;1.52;;
19842;SDS011;10082;51.038;6.992;2022-10-03T12:00:28;4.82;;;1.52;;
19842;SDS011;10082;51.038;6.992;2022-10-03T12:03:05;4.53;;;1.40;;
19842;SDS011;10082;51.038;6.992;2022-10-03T12:05:41;3.78;;;1.40;;
19842;SDS011;10082;51.038;6.992;2022-10-03T12:08:18;4.78;;;1.50;;
19842;SDS011;10082;51.038;6.992;2022-10-03T12:11:24;4.03;;;1.50;;
19842;SDS011;10082;51.038;6.992;2022-10-03T12:14:00;5.53;;;1.73;;
19842;SDS011;10082;51.038;6.992;2022-10-03T12:16:48;3.40;;;1.50;;
19842;SDS011;10082;51.038;6.992;2022-10-03T12:19:32;4.05;;;2.10;;
19842;SDS011;10082;51.038;6.992;2022-10-03T12:22:07;3.05;;;1.73;;
19842;SDS011;10082;51.038;6.992;2022-10-03T12:24:48;6.43;;;1.92;;
19842;SDS011;10082;51.038;6.992;2022-10-03T12:27:18;3.75;;;1.23;;
19842;SDS011;10082;51.038;6.992;2022-10-03T12:29:54;3.67;;;1.45;;
19842;SDS011;10082;51.038;6.992;2022-10-03T12:32:27;4.60;;;1.60;;
19842;SDS011;10082;51.038;6.992;2022-10-03T12:35:12;4.38;;;1.40;;
19842;SDS011;10082;51.038;6.992;2022-10-03T12:37:52;4.05;;;1.20;;
19842;SDS011;10082;51.038;6.992;2022-10-03T12:40:29;3.47;;;1.85;;
19842;SDS011;10082;51.038;6.992;2022-10-03T12:43:02;3.65;;;1.60;;
19842;SDS011;10082;51.038;6.992;2022-10-03T12:45:35;5.95;;;1.70;;
19842;SDS011;10082;51.038;6.992;2022-10-03T12:48:12;3.67;;;1.60;;
19842;SDS011;10082;51.038;6.992;2022-10-03T12:50:54;6.13;;;1.60;;
19842;SDS011;10082;51.038;6.992;2022-10-03T12:53:32;5.15;;;1.85;;
19842;SDS011;10082;51.038;6.992;2022-10-03T12:56:13;5.20;;;1.40;;
19842;SDS011;10082;51.038;6.992;2022-10-03T12:58:53;4.60;;;1.83;;
19842;SDS011;10082;51.038;6.992;2022-10-03T13:01:44;3.50;;;1.65;;
19842;SDS011;10082;51.038;6.992;2022-10-03T13:04:28;5.57;;;1.60;;
19842;SDS011;10082;51.038;6.992;2022-10-03T13:07:12;4.93;;;1.48;;
19842;SDS011;10082;51.038;6.992;2022-10-03T13:12:46;6.03;;;1.70;;
19842;SDS011;10082;51.038;6.992;2022-10-03T13:18:14;3.42;;;1.50;;
19842;SDS011;10082;51.038;6.992;2022-10-03T13:20:57;4.13;;;1.30;;
19842;SDS011;10082;51.038;6.992;2022-10-03T13:23:46;3.80;;;1.48;;
19842;SDS011;10082;51.038;6.992;2022-10-03T13:26:31;3.30;;;1.35;;
19842;SDS011;10082;51.038;6.992;2022-10-03T13:29:11;2.55;;;1.20;;
19842;SDS011;10082;51.038;6.992;2022-10-03T13:32:07;2.65;;;1.40;;
19842;SDS011;10082;51.038;6.992;2022-10-03T13:38:03;3.67;;;1.50;;
19842;SDS011;10082;51.038;6.992;2022-10-03T13:40:53;5.45;;;1.20;;
19842;SDS011;10082;51.038;6.992;2022-10-03T13:43:27;4.65;;;1.63;;
19842;SDS011;10082;51.038;6.992;2022-10-03T13:46:00;2.85;;;1.35;;
19842;SDS011;10082;51.038;6.992;2022-10-03T13:48:32;3.75;;;1.50;;
19842;SDS011;10082;51.038;6.992;2022-10-03T13:51:01;5.32;;;1.55;;
19842;SDS011;10082;51.038;6.992;2022-10-03T13:53:41;4.60;;;1.45;;
19842;SDS011;10082;51.038;6.992;2022-10-03T13:56:26;4.72;;;1.60;;
19842;SDS011;10082;51.038;6.992;2022-10-03T13:59:06;3.58;;;1.40;;
19842;SDS011;10082;51.038;6.992;2022-10-03T14:01:50;5.30;;;1.20;;
19842;SDS011;10082;51.038;6.992;2022-10-03T14:04:38;5.43;;;1.40;;
19842;SDS011;10082;51.038;6.992;2022-10-03T14:07:28;2.28;;;1.38;;
19842;SDS011;10082;51.038;6.992;2022-10-03T14:13:18;4.07;;;1.75;;
19842;SDS011;10082;51.038;6.992;2022-10-03T14:15:53;4.68;;;1.25;;
19842;SDS011;10082;51.038;6.992;2022-10-03T14:18:33;6.55;;;1.42;;
19842;SDS011;10082;51.038;6.992;2022-10-03T14:21:29;3.75;;;1.50;;
19842;SDS011;10082;51.038;6.992;2022-10-03T14:24:09;4.30;;;1.45;;
19842;SDS011;10082;51.038;6.992;2022-10-03T14:26:47;3.03;;;1.20;;
19842;SDS011;10082;51.038;6.992;2022-10-03T14:29:24;4.13;;;1.48;;
19842;SDS011;10082;51.038;6.992;2022-10-03T14:31:59;6.43;;;1.42;;
19842;SDS011;10082;51.038;6.992;2022-10-03T14:34:39;4.90;;;1.45;;
19842;SDS011;10082;51.038;6.992;2022-10-03T14:37:16;3.40;;;1.10;;
19842;SDS011;10082;51.038;6.992;2022-10-03T14:39:54;2.53;;;1.10;;
19842;SDS011;10082;51.038;6.992;2022-10-03T14:45:37;2.65;;;1.10;;
19842;SDS011;10082;51.038;6.992;2022-10-03T14:48:16;3.15;;;1.33;;
19842;SDS011;10082;51.038;6.992;2022-10-03T14:50:48;1.73;;;1.10;;
19842;SDS011;10082;51.038;6.992;2022-10-03T14:53:22;4.40;;;1.60;;
19842;SDS011;10082;51.038;6.992;2022-10-03T14:55:55;3.53;;;1.30;;
19842;SDS011;10082;51.038;6.992;2022-10-03T14:58:25;3.38;;;1.02;;
19842;SDS011;10082;51.038;6.992;2022-10-03T15:01:03;4.25;;;1.63;;
19842;SDS011;10082;51.038;6.992;2022-10-03T15:03:37;4.05;;;1.40;;
19842;SDS011;10082;51.038;6.992;2022-10-03T15:06:18;3.40;;;1.50;;
19842;SDS011;10082;51.038;6.992;2022-10-03T15:09:01;3.03;;;1.20;;
19842;SDS011;10082;51.038;6.992;2022-10-03T15:11:31;3.45;;;1.40;;
19842;SDS011;10082;51.038;6.992;2022-10-03T15:14:00;5.72;;;1.33;;
19842;SDS011;10082;51.038;6.992;2022-10-03T15:16:34;4.57;;;1.50;;
19842;SDS011;10082;51.038;6.992;2022-10-03T15:19:13;3.95;;;1.38;;
19842;SDS011;10082;51.038;6.992;2022-10-03T15:21:44;4.22;;;1.45;;
19842;SDS011;10082;51.038;6.992;2022-10-03T15:24:17;4.53;;;1.30;;
19842;SDS011;10082;51.038;6.992;2022-10-03T15:26:48;2.70;;;1.20;;
19842;SDS011;10082;51.038;6.992;2022-10-03T15:29:19;5.38;;;1.63;;
19842;SDS011;10082;51.038;6.992;2022-10-03T15:31:51;4.57;;;1.45;;
19842;SDS011;10082;51.038;6.992;2022-10-03T15:34:29;5.32;;;1.35;;
19842;SDS011;10082;51.038;6.992;2022-10-03T15:37:05;5.65;;;1.83;;
19842;SDS011;10082;51.038;6.992;2022-10-03T15:40:03;4.25;;;1.27;;
19842;SDS011;10082;51.038;6.992;2022-10-03T15:42:42;3.78;;;1.42;;
19842;SDS011;10082;51.038;6.992;2022-10-03T15:45:22;3.08;;;1.35;;
19842;SDS011;10082;51.038;6.992;2022-10-03T15:47:59;4.38;;;1.48;;
19842;SDS011;10082;51.038;6.992;2022-10-03T15:50:33;4.63;;;1.70;;
19842;SDS011;10082;51.038;6.992;2022-10-03T15:53:06;3.47;;;1.30;;
19842;SDS011;10082;51.038;6.992;2022-10-03T15:55:35;6.00;;;1.50;;
19842;SDS011;10082;51.038;6.992;2022-10-03T15:58:08;1.85;;;1.10;;
19842;SDS011;10082;51.038;6.992;2022-10-03T16:00:46;4.10;;;1.52;;
19842;SDS011;10082;51.038;6.992;2022-10-03T16:03:25;3.95;;;1.52;;
19842;SDS011;10082;51.038;6.992;2022-10-03T16:06:01;3.35;;;1.20;;
19842;SDS011;10082;51.038;6.992;2022-10-03T16:08:38;3.70;;;1.65;;
19842;SDS011;10082;51.038;6.992;2022-10-03T16:11:19;4.32;;;1.48;;
19842;SDS011;10082;51.038;6.992;2022-10-03T16:13:52;4.55;;;1.83;;
19842;SDS011;10082;51.038;6.992;2022-10-03T16:16:39;3.90;;;1.60;;
19842;SDS011;10082;51.038;6.992;2022-10-03T16:19:35;3.10;;;1.33;;
19842;SDS011;10082;51.038;6.992;2022-10-03T16:22:15;4.63;;;1.70;;
19842;SDS011;10082;51.038;6.992;2022-10-03T16:24:57;3.58;;;1.40;;
19842;SDS011;10082;51.038;6.992;2022-10-03T16:27:30;3.80;;;1.55;;
19842;SDS011;10082;51.038;6.992;2022-10-03T16:30:10;3.60;;;1.20;;
19842;SDS011;10082;51.038;6.992;2022-10-03T16:32:44;5.10;;;1.35;;
19842;SDS011;10082;51.038;6.992;2022-10-03T16:35:29;5.13;;;1.73;;
19842;SDS011;10082;51.038;6.992;2022-10-03T16:37:58;7.35;;;2.08;;
19842;SDS011;10082;51.038;6.992;2022-10-03T16:40:27;4.70;;;1.33;;
19842;SDS011;10082;51.038;6.992;2022-10-03T16:42:56;3.90;;;1.52;;
19842;SDS011;10082;51.038;6.992;2022-10-03T16:45:25;5.68;;;1.55;;
19842;SDS011;10082;51.038;6.992;2022-10-03T16:47:56;3.25;;;1.40;;
19842;SDS011;10082;51.038;6.992;2022-10-03T16:50:45;3.88;;;1.70;;
19842;SDS011;10082;51.038;6.992;2022-10-03T16:53:14;2.92;;;1.58;;
19842;SDS011;10082;51.038;6.992;2022-10-03T16:55:44;4.07;;;1.40;;
19842;SDS011;10082;51.038;6.992;2022-10-03T16:58:16;6.53;;;2.20;;
19842;SDS011;10082;51.038;6.992;2022-10-03T17:00:50;2.58;;;1.27;;
19842;SDS011;10082;51.038;6.992;2022-10-03T17:03:22;5.45;;;1.73;;
19842;SDS011;10082;51.038;6.992;2022-10-03T17:05:53;6.20;;;1.90;;
19842;SDS011;10082;51.038;6.992;2022-10-03T17:08:25;4.25;;;1.70;;
19842;SDS011;10082;51.038;6.992;2022-10-03T17:10:57;5.07;;;1.92;;
19842;SDS011;10082;51.038;6.992;2022-10-03T17:13:26;4.60;;;1.80;;
19842;SDS011;10082;51.038;6.992;2022-10-03T17:16:06;4.70;;;2.08;;
19842;SDS011;10082;51.038;6.992;2022-10-03T17:18:39;4.68;;;1.83;;
19842;SDS011;10082;51.038;6.992;2022-10-03T17:21:14;3.85;;;2.03;;
19842;SDS011;10082;51.038;6.992;2022-10-03T17:23:49;2.35;;;1.80;;
19842;SDS011;10082;51.038;6.992;2022-10-03T17:26:23;5.75;;;2.03;;
19842;SDS011;10082;51.038;6.992;2022-10-03T17:28:53;4.18;;;1.90;;
19842;SDS011;10082;51.038;6.992;2022-10-03T17:31:29;4.82;;;2.30;;
19842;SDS011;10082;51.038;6.992;2022-10-03T17:34:03;6.43;;;1.90;;
19842;SDS011;10082;51.038;6.992;2022-10-03T17:36:41;5.43;;;2.13;;
19842;SDS011;10082;51.038;6.992;2022-10-03T17:39:21;5.57;;;2.10;;
19842;SDS011;10082;51.038;6.992;2022-10-03T17:41:58;3.30;;;1.88;;
19842;SDS011;10082;51.038;6.992;2022-10-03T17:44:32;5.03;;;2.30;;
19842;SDS011;10082;51.038;6.992;2022-10-03T17:47:09;4.63;;;1.80;;
19842;SDS011;10082;51.038;6.992;2022-10-03T17:49:48;5.50;;;2.47;;
19842;SDS011;10082;51.038;6.992;2022-10-03T17:52:23;3.35;;;1.85;;
19842;SDS011;10082;51.038;6.992;2022-10-03T17:54:52;6.43;;;2.40;;
19842;SDS011;10082;51.038;6.992;2022-10-03T17:57:24;4.00;;;2.13;;
19842;SDS011;10082;51.038;6.992;2022-10-03T17:59:56;3.55;;;1.80;;
19842;SDS011;10082;51.038;6.992;2022-10-03T18:02:32;4.57;;;2.03;;
19842;SDS011;10082;51.038;6.992;2022-10-03T18:05:08;4.10;;;2.20;;
19842;SDS011;10082;51.038;6.992;2022-10-03T18:07:40;4.97;;;2.47;;
19842;SDS011;10082;51.038;6.992;2022-10-03T18:10:16;5.35;;;2.15;;
19842;SDS011;10082;51.038;6.992;2022-10-03T18:12:46;3.38;;;2.10;;
19842;SDS011;10082;51.038;6.992;2022-10-03T18:21:23;5.05;;;2.50;;
19842;SDS011;10082;51.038;6.992;2022-10-03T18:24:23;5.60;;;2.53;;
19842;SDS011;10082;51.038;6.992;2022-10-03T18:27:07;4.35;;;2.30;;
19842;SDS011;10082;51.038;6.992;2022-10-03T18:29:47;4.38;;;2.60;;
19842;SDS011;10082;51.038;6.992;2022-10-03T18:32:21;7.45;;;3.20;;
19842;SDS011;10082;51.038;6.992;2022-10-03T18:34:56;6.28;;;3.20;;
19842;SDS011;10082;51.038;6.992;2022-10-03T18:40:22;7.18;;;3.65;;
19842;SDS011;10082;51.038;6.992;2022-10-03T18:42:52;5.93;;;3.95;;
19842;SDS011;10082;51.038;6.992;2022-10-03T18:45:20;6.85;;;3.40;;
19842;SDS011;10082;51.038;6.992;2022-10-03T18:47:52;5.07;;;3.65;;
19842;SDS011;10082;51.038;6.992;2022-10-03T18:50:25;6.28;;;4.10;;
19842;SDS011;10082;51.038;6.992;2022-10-03T18:52:57;6.97;;;4.05;;
19842;SDS011;10082;51.038;6.992;2022-10-03T18:55:45;6.22;;;4.07;;
19842;SDS011;10082;51.038;6.992;2022-10-03T18:58:16;8.15;;;4.50;;
19842;SDS011;10082;51.038;6.992;2022-10-03T19:00:48;5.78;;;3.97;;
19842;SDS011;10082;51.038;6.992;2022-10-03T19:03:18;7.53;;;5.10;;
19842;SDS011;10082;51.038;6.992;2022-10-03T19:05:50;6.22;;;4.57;;
19842;SDS011;10082;51.038;6.992;2022-10-03T19:08:22;8.20;;;5.03;;
19842;SDS011;10082;51.038;6.992;2022-10-03T19:10:55;9.95;;;4.40;;